sensor_id;sensor_type;location;lat;lon;timestamp;temperature;humidity
68235;DHT22;55052;52.056;5.296;2024-02-21T00:00:29;10.90;99.90
68235;DHT22;55052;52.056;5.296;2024-02-21T00:02:56;10.90;99.90
68235;DHT22;55052;52.056;5.296;2024-02-21T00:05:26;10.90;99.90
68235;DHT22;55052;52.056;5.296;2024-02-21T00:07:53;10.90;99.90
68235;DHT22;55052;52.056;5.296;2024-02-21T00:10:20;10.80;99.90
68235;DHT22;55052;52.056;5.296;2024-02-21T00:12:47;10.80;99.90
68235;DHT22;55052;52.056;5.296;2024-02-21T00:15:14;10.80;99.90
68235;DHT22;55052;52.056;5.296;2024-02-21T00:17:42;10.80;99.90
68235;DHT22;55052;52.056;5.296;2024-02-21T00:20:09;10.80;99.90
68235;DHT22;55052;52.056;5.296;2024-02-21T00:22:37;10.80;99.90
68235;DHT22;55052;52.056;5.296;2024-02-21T00:25:04;10.80;99.90
68235;DHT22;55052;52.056;5.296;2024-02-21T00:27:31;10.80;99.90
68235;DHT22;55052;52.056;5.296;2024-02-21T00:29:58;10.80;99.90
68235;DHT22;55052;52.056;5.296;2024-02-21T00:32:25;10.80;99.90
68235;DHT22;55052;52.056;5.296;2024-02-21T00:34:52;10.80;99.90
68235;DHT22;55052;52.056;5.296;2024-02-21T00:37:19;10.80;99.90
68235;DHT22;55052;52.056;5.296;2024-02-21T00:39:46;10.80;99.90
68235;DHT22;55052;52.056;5.296;2024-02-21T00:42:13;10.80;99.90
68235;DHT22;55052;52.056;5.296;2024-02-21T00:44:40;10.80;99.90
68235;DHT22;55052;52.056;5.296;2024-02-21T00:47:06;10.80;99.90
68235;DHT22;55052;52.056;5.296;2024-02-21T00:49:33;10.80;99.90
68235;DHT22;55052;52.056;5.296;2024-02-21T00:52:00;10.80;99.90
68235;DHT22;55052;52.056;5.296;2024-02-21T00:54:27;10.80;99.90
68235;DHT22;55052;52.056;5.296;2024-02-21T00:57:05;10.80;99.90
68235;DHT22;55052;52.056;5.296;2024-02-21T00:59:32;10.80;99.90
68235;DHT22;55052;52.056;5.296;2024-02-21T01:01:59;10.80;99.90
68235;DHT22;55052;52.056;5.296;2024-02-21T01:04:26;10.80;99.90
68235;DHT22;55052;52.056;5.296;2024-02-21T01:06:53;10.70;99.90
68235;DHT22;55052;52.056;5.296;2024-02-21T01:09:19;10.70;99.90
68235;DHT22;55052;52.056;5.296;2024-02-21T01:11:46;10.80;99.90
68235;DHT22;55052;52.056;5.296;2024-02-21T01:14:14;10.80;99.90
68235;DHT22;55052;52.056;5.296;2024-02-21T01:16:41;10.80;99.90
68235;DHT22;55052;52.056;5.296;2024-02-21T01:19:08;10.80;99.90
68235;DHT22;55052;52.056;5.296;2024-02-21T01:21:35;10.70;99.90
68235;DHT22;55052;52.056;5.296;2024-02-21T01:24:02;10.70;99.90
68235;DHT22;55052;52.056;5.296;2024-02-21T01:26:29;10.70;99.90
68235;DHT22;55052;52.056;5.296;2024-02-21T01:28:55;10.70;99.90
68235;DHT22;55052;52.056;5.296;2024-02-21T01:31:22;10.70;99.90
68235;DHT22;55052;52.056;5.296;2024-02-21T01:33:49;10.70;99.90
68235;DHT22;55052;52.056;5.296;2024-02-21T01:36:16;10.70;99.90
68235;DHT22;55052;52.056;5.296;2024-02-21T01:38:43;10.70;99.90
68235;DHT22;55052;52.056;5.296;2024-02-21T01:41:10;10.70;99.90
68235;DHT22;55052;52.056;5.296;2024-02-21T01:43:36;10.70;99.90
68235;DHT22;55052;52.056;5.296;2024-02-21T01:46:03;10.70;99.90
68235;DHT22;55052;52.056;5.296;2024-02-21T01:48:30;10.70;99.90
68235;DHT22;55052;52.056;5.296;2024-02-21T01:50:57;10.70;99.90
68235;DHT22;55052;52.056;5.296;2024-02-21T01:53:35;10.70;99.90
68235;DHT22;55052;52.056;5.296;2024-02-21T01:56:04;10.70;99.90
68235;DHT22;55052;52.056;5.296;2024-02-21T01:58:32;10.70;99.90
68235;DHT22;55052;52.056;5.296;2024-02-21T02:01:03;10.70;99.90
68235;DHT22;55052;52.056;5.296;2024-02-21T02:03:31;10.70;99.90
68235;DHT22;55052;52.056;5.296;2024-02-21T02:05:58;10.70;99.90
68235;DHT22;55052;52.056;5.296;2024-02-21T02:08:24;10.70;99.90
68235;DHT22;55052;52.056;5.296;2024-02-21T02:10:51;10.70;99.90
68235;DHT22;55052;52.056;5.296;2024-02-21T02:13:18;10.70;99.90
68235;DHT22;55052;52.056;5.296;2024-02-21T02:15:47;10.60;99.90
68235;DHT22;55052;52.056;5.296;2024-02-21T02:18:15;10.70;99.90
68235;DHT22;55052;52.056;5.296;2024-02-21T02:20:43;10.60;99.90
68235;DHT22;55052;52.056;5.296;2024-02-21T02:25:48;10.60;99.90
68235;DHT22;55052;52.056;5.296;2024-02-21T02:28:19;10.60;99.90
68235;DHT22;55052;52.056;5.296;2024-02-21T02:30:46;10.70;99.90
68235;DHT22;55052;52.056;5.296;2024-02-21T02:33:13;10.60;99.90
68235;DHT22;55052;52.056;5.296;2024-02-21T02:35:40;10.60;99.90
68235;DHT22;55052;52.056;5.296;2024-02-21T02:38:07;10.60;99.90
68235;DHT22;55052;52.056;5.296;2024-02-21T02:40:34;10.60;99.90
68235;DHT22;55052;52.056;5.296;2024-02-21T02:43:01;10.70;99.90
68235;DHT22;55052;52.056;5.296;2024-02-21T02:45:28;10.70;99.90
68235;DHT22;55052;52.056;5.296;2024-02-21T02:47:56;10.60;99.90
68235;DHT22;55052;52.056;5.296;2024-02-21T02:50:24;10.60;99.90
68235;DHT22;55052;52.056;5.296;2024-02-21T02:52:51;10.60;99.90
68235;DHT22;55052;52.056;5.296;2024-02-21T02:55:19;10.60;99.90
68235;DHT22;55052;52.056;5.296;2024-02-21T02:57:46;10.60;99.90
68235;DHT22;55052;52.056;5.296;2024-02-21T03:00:14;10.60;99.90
68235;DHT22;55052;52.056;5.296;2024-02-21T03:02:42;10.60;99.90
68235;DHT22;55052;52.056;5.296;2024-02-21T03:05:17;10.60;99.90
68235;DHT22;55052;52.056;5.296;2024-02-21T03:07:45;10.60;99.90
68235;DHT22;55052;52.056;5.296;2024-02-21T03:10:13;10.60;99.90
68235;DHT22;55052;52.056;5.296;2024-02-21T03:12:40;10.60;99.90
68235;DHT22;55052;52.056;5.296;2024-02-21T03:15:08;10.60;99.90
68235;DHT22;55052;52.056;5.296;2024-02-21T03:17:35;10.60;99.90
68235;DHT22;55052;52.056;5.296;2024-02-21T03:20:02;10.60;99.90
68235;DHT22;55052;52.056;5.296;2024-02-21T03:22:36;10.60;99.90
68235;DHT22;55052;52.056;5.296;2024-02-21T03:25:03;10.60;99.90
68235;DHT22;55052;52.056;5.296;2024-02-21T03:27:30;10.60;99.90
68235;DHT22;55052;52.056;5.296;2024-02-21T03:29:57;10.60;99.90
68235;DHT22;55052;52.056;5.296;2024-02-21T03:32:24;10.60;99.90
68235;DHT22;55052;52.056;5.296;2024-02-21T03:34:51;10.60;99.90
68235;DHT22;55052;52.056;5.296;2024-02-21T03:37:18;10.60;99.90
68235;DHT22;55052;52.056;5.296;2024-02-21T03:39:45;10.60;99.90
68235;DHT22;55052;52.056;5.296;2024-02-21T03:42:12;10.60;99.90
68235;DHT22;55052;52.056;5.296;2024-02-21T03:44:39;10.60;99.90
68235;DHT22;55052;52.056;5.296;2024-02-21T03:47:05;10.50;99.90
68235;DHT22;55052;52.056;5.296;2024-02-21T03:49:32;10.60;99.90
68235;DHT22;55052;52.056;5.296;2024-02-21T03:51:59;10.60;99.90
68235;DHT22;55052;52.056;5.296;2024-02-21T03:54:26;10.60;99.90
68235;DHT22;55052;52.056;5.296;2024-02-21T03:56:53;10.60;99.90
68235;DHT22;55052;52.056;5.296;2024-02-21T03:59:20;10.50;99.90
68235;DHT22;55052;52.056;5.296;2024-02-21T04:01:55;10.50;99.90
68235;DHT22;55052;52.056;5.296;2024-02-21T04:04:22;10.50;99.90
68235;DHT22;55052;52.056;5.296;2024-02-21T04:06:49;10.60;99.90
68235;DHT22;55052;52.056;5.296;2024-02-21T04:09:17;10.50;99.90
68235;DHT22;55052;52.056;5.296;2024-02-21T04:11:44;10.50;99.90
68235;DHT22;55052;52.056;5.296;2024-02-21T04:14:11;10.50;99.90
68235;DHT22;55052;52.056;5.296;2024-02-21T04:16:38;10.50;99.90
68235;DHT22;55052;52.056;5.296;2024-02-21T04:19:06;10.50;99.90
68235;DHT22;55052;52.056;5.296;2024-02-21T04:21:34;10.50;99.90
68235;DHT22;55052;52.056;5.296;2024-02-21T04:24:01;10.50;99.90
68235;DHT22;55052;52.056;5.296;2024-02-21T04:26:30;10.50;99.90
68235;DHT22;55052;52.056;5.296;2024-02-21T04:28:57;10.50;99.90
68235;DHT22;55052;52.056;5.296;2024-02-21T04:31:24;10.50;99.90
68235;DHT22;55052;52.056;5.296;2024-02-21T04:33:51;10.50;99.90
68235;DHT22;55052;52.056;5.296;2024-02-21T04:36:18;10.50;99.90
68235;DHT22;55052;52.056;5.296;2024-02-21T04:38:45;10.50;99.90
68235;DHT22;55052;52.056;5.296;2024-02-21T04:41:12;10.40;99.90
68235;DHT22;55052;52.056;5.296;2024-02-21T04:43:39;10.40;99.90
68235;DHT22;55052;52.056;5.296;2024-02-21T04:46:06;10.40;99.90
68235;DHT22;55052;52.056;5.296;2024-02-21T04:48:32;10.40;99.90
68235;DHT22;55052;52.056;5.296;2024-02-21T04:50:59;10.40;99.90
68235;DHT22;55052;52.056;5.296;2024-02-21T04:53:26;10.50;99.90
68235;DHT22;55052;52.056;5.296;2024-02-21T04:55:53;10.50;99.90
68235;DHT22;55052;52.056;5.296;2024-02-21T04:58:20;10.50;99.90
68235;DHT22;55052;52.056;5.296;2024-02-21T05:00:47;10.50;99.90
68235;DHT22;55052;52.056;5.296;2024-02-21T05:03:14;10.50;99.90
68235;DHT22;55052;52.056;5.296;2024-02-21T05:05:40;10.50;99.90
68235;DHT22;55052;52.056;5.296;2024-02-21T05:08:07;10.50;99.90
68235;DHT22;55052;52.056;5.296;2024-02-21T05:10:36;10.50;99.90
68235;DHT22;55052;52.056;5.296;2024-02-21T05:13:03;10.50;99.90
68235;DHT22;55052;52.056;5.296;2024-02-21T05:15:31;10.50;99.90
68235;DHT22;55052;52.056;5.296;2024-02-21T05:17:58;10.50;99.90
68235;DHT22;55052;52.056;5.296;2024-02-21T05:20:25;10.50;99.90
68235;DHT22;55052;52.056;5.296;2024-02-21T05:22:52;10.50;99.90
68235;DHT22;55052;52.056;5.296;2024-02-21T05:25:19;10.40;99.90
68235;DHT22;55052;52.056;5.296;2024-02-21T05:27:45;10.40;99.90
68235;DHT22;55052;52.056;5.296;2024-02-21T05:30:12;10.40;99.90
68235;DHT22;55052;52.056;5.296;2024-02-21T05:32:39;10.40;99.90
68235;DHT22;55052;52.056;5.296;2024-02-21T05:35:07;10.40;99.90
68235;DHT22;55052;52.056;5.296;2024-02-21T05:37:34;10.50;99.90
68235;DHT22;55052;52.056;5.296;2024-02-21T05:40:01;10.40;99.90
68235;DHT22;55052;52.056;5.296;2024-02-21T05:42:27;10.40;99.90
68235;DHT22;55052;52.056;5.296;2024-02-21T05:44:54;10.40;99.90
68235;DHT22;55052;52.056;5.296;2024-02-21T05:47:21;10.40;99.90
68235;DHT22;55052;52.056;5.296;2024-02-21T05:49:48;10.40;99.90
68235;DHT22;55052;52.056;5.296;2024-02-21T05:52:15;10.40;99.90
68235;DHT22;55052;52.056;5.296;2024-02-21T05:54:42;10.40;99.90
68235;DHT22;55052;52.056;5.296;2024-02-21T05:57:09;10.50;99.90
68235;DHT22;55052;52.056;5.296;2024-02-21T05:59:38;10.40;99.90
68235;DHT22;55052;52.056;5.296;2024-02-21T06:02:06;10.40;99.90
68235;DHT22;55052;52.056;5.296;2024-02-21T06:04:34;10.40;99.90
68235;DHT22;55052;52.056;5.296;2024-02-21T06:07:01;10.40;99.90
68235;DHT22;55052;52.056;5.296;2024-02-21T06:09:28;10.50;99.90
68235;DHT22;55052;52.056;5.296;2024-02-21T06:11:55;10.40;99.90
68235;DHT22;55052;52.056;5.296;2024-02-21T06:14:22;10.40;99.90
68235;DHT22;55052;52.056;5.296;2024-02-21T06:16:49;10.50;99.90
68235;DHT22;55052;52.056;5.296;2024-02-21T06:19:16;10.40;99.90
68235;DHT22;55052;52.056;5.296;2024-02-21T06:21:43;10.40;99.90
68235;DHT22;55052;52.056;5.296;2024-02-21T06:24:10;10.40;99.90
68235;DHT22;55052;52.056;5.296;2024-02-21T06:26:40;10.40;99.90
68235;DHT22;55052;52.056;5.296;2024-02-21T06:29:07;10.40;99.90
68235;DHT22;55052;52.056;5.296;2024-02-21T06:31:35;10.40;99.90
68235;DHT22;55052;52.056;5.296;2024-02-21T06:34:02;10.30;99.90
68235;DHT22;55052;52.056;5.296;2024-02-21T06:36:29;10.30;99.90
68235;DHT22;55052;52.056;5.296;2024-02-21T06:38:56;10.30;99.90
68235;DHT22;55052;52.056;5.296;2024-02-21T06:41:23;10.30;99.90
68235;DHT22;55052;52.056;5.296;2024-02-21T06:43:50;10.30;99.90
68235;DHT22;55052;52.056;5.296;2024-02-21T06:48:52;10.30;99.90
68235;DHT22;55052;52.056;5.296;2024-02-21T06:51:19;10.20;99.90
68235;DHT22;55052;52.056;5.296;2024-02-21T06:53:46;10.30;99.90
68235;DHT22;55052;52.056;5.296;2024-02-21T06:56:13;10.20;99.90
68235;DHT22;55052;52.056;5.296;2024-02-21T06:58:39;10.20;99.90
68235;DHT22;55052;52.056;5.296;2024-02-21T07:01:07;10.20;99.90
68235;DHT22;55052;52.056;5.296;2024-02-21T07:03:34;10.20;99.90
68235;DHT22;55052;52.056;5.296;2024-02-21T07:06:01;10.20;99.90
68235;DHT22;55052;52.056;5.296;2024-02-21T07:08:28;10.20;99.90
68235;DHT22;55052;52.056;5.296;2024-02-21T07:10:55;10.20;99.90
68235;DHT22;55052;52.056;5.296;2024-02-21T07:13:22;10.20;99.90
68235;DHT22;55052;52.056;5.296;2024-02-21T07:15:49;10.20;99.90
68235;DHT22;55052;52.056;5.296;2024-02-21T07:18:16;10.20;99.90
68235;DHT22;55052;52.056;5.296;2024-02-21T07:20:43;10.30;99.90
68235;DHT22;55052;52.056;5.296;2024-02-21T07:23:10;10.30;99.90
68235;DHT22;55052;52.056;5.296;2024-02-21T07:25:37;10.30;99.90
68235;DHT22;55052;52.056;5.296;2024-02-21T07:28:05;10.30;99.90
68235;DHT22;55052;52.056;5.296;2024-02-21T07:30:32;10.30;99.90
68235;DHT22;55052;52.056;5.296;2024-02-21T07:32:59;10.20;99.90
68235;DHT22;55052;52.056;5.296;2024-02-21T07:35:26;10.20;99.90
68235;DHT22;55052;52.056;5.296;2024-02-21T07:37:52;10.20;99.90
68235;DHT22;55052;52.056;5.296;2024-02-21T07:40:19;10.20;99.90
68235;DHT22;55052;52.056;5.296;2024-02-21T07:42:46;10.20;99.90
68235;DHT22;55052;52.056;5.296;2024-02-21T07:45:17;10.20;99.90
68235;DHT22;55052;52.056;5.296;2024-02-21T07:47:50;10.20;99.90
68235;DHT22;55052;52.056;5.296;2024-02-21T07:50:17;10.20;99.90
68235;DHT22;55052;52.056;5.296;2024-02-21T07:52:44;10.20;99.90
68235;DHT22;55052;52.056;5.296;2024-02-21T07:55:11;10.20;99.90
68235;DHT22;55052;52.056;5.296;2024-02-21T07:57:38;10.20;99.90
68235;DHT22;55052;52.056;5.296;2024-02-21T08:00:06;10.20;99.90
68235;DHT22;55052;52.056;5.296;2024-02-21T08:02:36;10.20;99.90
68235;DHT22;55052;52.056;5.296;2024-02-21T08:05:03;10.20;99.90
68235;DHT22;55052;52.056;5.296;2024-02-21T08:07:30;10.20;99.90
68235;DHT22;55052;52.056;5.296;2024-02-21T08:09:57;10.20;99.90
68235;DHT22;55052;52.056;5.296;2024-02-21T08:12:24;10.20;99.90
68235;DHT22;55052;52.056;5.296;2024-02-21T08:14:51;10.20;99.90
68235;DHT22;55052;52.056;5.296;2024-02-21T08:17:18;10.20;99.90
68235;DHT22;55052;52.056;5.296;2024-02-21T08:19:44;10.20;99.90
68235;DHT22;55052;52.056;5.296;2024-02-21T08:22:11;10.30;99.90
68235;DHT22;55052;52.056;5.296;2024-02-21T08:24:38;10.30;99.90
68235;DHT22;55052;52.056;5.296;2024-02-21T08:27:05;10.30;99.90
68235;DHT22;55052;52.056;5.296;2024-02-21T08:29:32;10.30;99.90
68235;DHT22;55052;52.056;5.296;2024-02-21T08:31:59;10.30;99.90
68235;DHT22;55052;52.056;5.296;2024-02-21T08:34:26;10.30;99.90
68235;DHT22;55052;52.056;5.296;2024-02-21T08:36:53;10.40;99.90
68235;DHT22;55052;52.056;5.296;2024-02-21T08:39:20;10.40;99.90
68235;DHT22;55052;52.056;5.296;2024-02-21T08:41:47;10.40;99.90
68235;DHT22;55052;52.056;5.296;2024-02-21T08:44:23;10.40;99.90
68235;DHT22;55052;52.056;5.296;2024-02-21T08:46:54;10.40;99.90
68235;DHT22;55052;52.056;5.296;2024-02-21T08:49:21;10.50;99.90
68235;DHT22;55052;52.056;5.296;2024-02-21T08:51:48;10.50;99.90
68235;DHT22;55052;52.056;5.296;2024-02-21T08:54:15;10.50;99.90
68235;DHT22;55052;52.056;5.296;2024-02-21T08:56:43;10.50;99.90
68235;DHT22;55052;52.056;5.296;2024-02-21T08:59:10;10.60;99.90
68235;DHT22;55052;52.056;5.296;2024-02-21T09:01:37;10.50;99.90
68235;DHT22;55052;52.056;5.296;2024-02-21T09:04:05;10.60;99.90
68235;DHT22;55052;52.056;5.296;2024-02-21T09:06:32;10.60;99.90
68235;DHT22;55052;52.056;5.296;2024-02-21T09:09:00;10.60;99.90
68235;DHT22;55052;52.056;5.296;2024-02-21T09:11:28;10.60;99.90
68235;DHT22;55052;52.056;5.296;2024-02-21T09:13:56;10.70;99.90
68235;DHT22;55052;52.056;5.296;2024-02-21T09:16:22;10.70;99.90
68235;DHT22;55052;52.056;5.296;2024-02-21T09:18:50;10.70;99.90
68235;DHT22;55052;52.056;5.296;2024-02-21T09:21:18;10.70;99.90
68235;DHT22;55052;52.056;5.296;2024-02-21T09:23:45;10.70;99.90
68235;DHT22;55052;52.056;5.296;2024-02-21T09:26:12;10.70;99.90
68235;DHT22;55052;52.056;5.296;2024-02-21T09:28:45;10.70;99.90
68235;DHT22;55052;52.056;5.296;2024-02-21T09:31:12;10.60;99.90
68235;DHT22;55052;52.056;5.296;2024-02-21T09:33:39;10.70;99.90
68235;DHT22;55052;52.056;5.296;2024-02-21T09:36:06;10.70;99.90
68235;DHT22;55052;52.056;5.296;2024-02-21T09:38:33;10.80;99.90
68235;DHT22;55052;52.056;5.296;2024-02-21T09:41:15;10.80;99.90
68235;DHT22;55052;52.056;5.296;2024-02-21T09:43:47;10.80;99.90
68235;DHT22;55052;52.056;5.296;2024-02-21T09:46:18;10.80;99.90
68235;DHT22;55052;52.056;5.296;2024-02-21T09:51:17;10.90;99.90
68235;DHT22;55052;52.056;5.296;2024-02-21T09:53:44;10.80;99.90
68235;DHT22;55052;52.056;5.296;2024-02-21T09:56:27;10.90;99.90
68235;DHT22;55052;52.056;5.296;2024-02-21T09:58:55;10.90;99.90
68235;DHT22;55052;52.056;5.296;2024-02-21T10:01:22;11.00;99.90
68235;DHT22;55052;52.056;5.296;2024-02-21T10:04:00;11.00;99.90
68235;DHT22;55052;52.056;5.296;2024-02-21T10:06:30;11.10;99.90
68235;DHT22;55052;52.056;5.296;2024-02-21T10:08:57;11.10;99.90
68235;DHT22;55052;52.056;5.296;2024-02-21T10:11:24;11.10;99.90
68235;DHT22;55052;52.056;5.296;2024-02-21T10:14:03;11.10;99.90
68235;DHT22;55052;52.056;5.296;2024-02-21T10:16:31;11.10;99.90
68235;DHT22;55052;52.056;5.296;2024-02-21T10:18:59;11.10;99.90
68235;DHT22;55052;52.056;5.296;2024-02-21T10:21:26;11.20;99.90
68235;DHT22;55052;52.056;5.296;2024-02-21T10:23:53;11.20;99.90
68235;DHT22;55052;52.056;5.296;2024-02-21T10:26:20;11.30;99.90
68235;DHT22;55052;52.056;5.296;2024-02-21T10:28:47;11.30;99.90
68235;DHT22;55052;52.056;5.296;2024-02-21T10:31:25;11.30;99.90
68235;DHT22;55052;52.056;5.296;2024-02-21T10:34:00;11.40;99.90
68235;DHT22;55052;52.056;5.296;2024-02-21T10:36:30;11.40;99.90
68235;DHT22;55052;52.056;5.296;2024-02-21T10:38:57;11.40;99.90
68235;DHT22;55052;52.056;5.296;2024-02-21T10:41:24;11.40;99.90
68235;DHT22;55052;52.056;5.296;2024-02-21T10:43:54;11.40;99.90
68235;DHT22;55052;52.056;5.296;2024-02-21T10:46:24;11.40;99.90
68235;DHT22;55052;52.056;5.296;2024-02-21T10:49:03;11.50;99.90
68235;DHT22;55052;52.056;5.296;2024-02-21T10:51:34;11.50;99.90
68235;DHT22;55052;52.056;5.296;2024-02-21T10:56:54;11.50;99.90
68235;DHT22;55052;52.056;5.296;2024-02-21T10:59:23;11.60;99.90
68235;DHT22;55052;52.056;5.296;2024-02-21T11:01:50;11.60;99.90
68235;DHT22;55052;52.056;5.296;2024-02-21T11:04:23;11.60;99.90
68235;DHT22;55052;52.056;5.296;2024-02-21T11:06:51;11.60;99.90
68235;DHT22;55052;52.056;5.296;2024-02-21T11:09:29;11.60;99.90
68235;DHT22;55052;52.056;5.296;2024-02-21T11:11:57;11.50;99.80
68235;DHT22;55052;52.056;5.296;2024-02-21T11:14:27;11.60;99.80
68235;DHT22;55052;52.056;5.296;2024-02-21T11:16:54;11.50;99.80
68235;DHT22;55052;52.056;5.296;2024-02-21T11:19:25;11.50;99.80
68235;DHT22;55052;52.056;5.296;2024-02-21T11:21:54;11.50;99.80
68235;DHT22;55052;52.056;5.296;2024-02-21T11:24:39;11.40;99.70
68235;DHT22;55052;52.056;5.296;2024-02-21T11:27:13;11.40;99.70
68235;DHT22;55052;52.056;5.296;2024-02-21T11:29:44;11.40;99.80
68235;DHT22;55052;52.056;5.296;2024-02-21T11:32:14;11.30;99.90
68235;DHT22;55052;52.056;5.296;2024-02-21T11:34:55;11.30;99.90
68235;DHT22;55052;52.056;5.296;2024-02-21T11:37:25;11.40;99.90
68235;DHT22;55052;52.056;5.296;2024-02-21T11:39:53;11.30;99.90
68235;DHT22;55052;52.056;5.296;2024-02-21T11:42:20;11.30;99.90
68235;DHT22;55052;52.056;5.296;2024-02-21T11:44:46;11.30;99.90
68235;DHT22;55052;52.056;5.296;2024-02-21T11:47:14;11.30;99.90
68235;DHT22;55052;52.056;5.296;2024-02-21T11:49:48;11.30;99.90
68235;DHT22;55052;52.056;5.296;2024-02-21T11:52:17;11.30;99.90
68235;DHT22;55052;52.056;5.296;2024-02-21T11:54:46;11.30;99.90
68235;DHT22;55052;52.056;5.296;2024-02-21T11:57:13;11.30;99.90
68235;DHT22;55052;52.056;5.296;2024-02-21T11:59:44;11.30;99.90
68235;DHT22;55052;52.056;5.296;2024-02-21T12:02:12;11.40;99.90
68235;DHT22;55052;52.056;5.296;2024-02-21T12:04:39;11.50;99.90
68235;DHT22;55052;52.056;5.296;2024-02-21T12:07:06;11.40;99.90
68235;DHT22;55052;52.056;5.296;2024-02-21T12:09:34;11.60;99.90
68235;DHT22;55052;52.056;5.296;2024-02-21T12:12:05;11.70;99.90
68235;DHT22;55052;52.056;5.296;2024-02-21T12:14:34;11.80;99.90
68235;DHT22;55052;52.056;5.296;2024-02-21T12:17:01;11.80;99.90
68235;DHT22;55052;52.056;5.296;2024-02-21T12:19:31;11.90;99.90
68235;DHT22;55052;52.056;5.296;2024-02-21T12:21:59;11.90;99.80
68235;DHT22;55052;52.056;5.296;2024-02-21T12:24:28;11.90;99.60
68235;DHT22;55052;52.056;5.296;2024-02-21T12:26:56;11.90;99.50
68235;DHT22;55052;52.056;5.296;2024-02-21T12:29:27;11.80;99.40
68235;DHT22;55052;52.056;5.296;2024-02-21T12:31:55;11.90;99.30
68235;DHT22;55052;52.056;5.296;2024-02-21T12:34:23;11.90;99.30
68235;DHT22;55052;52.056;5.296;2024-02-21T12:37:10;11.80;99.10
68235;DHT22;55052;52.056;5.296;2024-02-21T12:39:38;11.80;99.20
68235;DHT22;55052;52.056;5.296;2024-02-21T12:42:05;11.90;99.20
68235;DHT22;55052;52.056;5.296;2024-02-21T12:44:32;11.80;99.20
68235;DHT22;55052;52.056;5.296;2024-02-21T12:46:59;11.90;99.20
68235;DHT22;55052;52.056;5.296;2024-02-21T12:49:26;11.90;99.10
68235;DHT22;55052;52.056;5.296;2024-02-21T12:51:56;11.80;99.10
68235;DHT22;55052;52.056;5.296;2024-02-21T12:54:22;11.90;99.20
68235;DHT22;55052;52.056;5.296;2024-02-21T12:56:50;11.90;99.10
68235;DHT22;55052;52.056;5.296;2024-02-21T12:59:17;11.90;99.00
68235;DHT22;55052;52.056;5.296;2024-02-21T13:01:43;12.00;98.90
68235;DHT22;55052;52.056;5.296;2024-02-21T13:04:10;11.90;98.90
68235;DHT22;55052;52.056;5.296;2024-02-21T13:06:38;12.00;98.90
68235;DHT22;55052;52.056;5.296;2024-02-21T13:09:05;12.00;99.30
68235;DHT22;55052;52.056;5.296;2024-02-21T13:11:35;12.00;98.90
68235;DHT22;55052;52.056;5.296;2024-02-21T13:14:02;12.00;98.80
68235;DHT22;55052;52.056;5.296;2024-02-21T13:16:29;12.00;98.70
68235;DHT22;55052;52.056;5.296;2024-02-21T13:18:56;12.00;98.70
68235;DHT22;55052;52.056;5.296;2024-02-21T13:21:23;12.00;98.50
68235;DHT22;55052;52.056;5.296;2024-02-21T13:23:50;11.90;98.50
68235;DHT22;55052;52.056;5.296;2024-02-21T13:26:17;11.90;98.50
68235;DHT22;55052;52.056;5.296;2024-02-21T13:28:44;11.90;98.50
68235;DHT22;55052;52.056;5.296;2024-02-21T13:31:12;11.90;98.40
68235;DHT22;55052;52.056;5.296;2024-02-21T13:33:39;11.90;98.30
68235;DHT22;55052;52.056;5.296;2024-02-21T13:36:06;11.90;98.30
68235;DHT22;55052;52.056;5.296;2024-02-21T13:38:33;11.90;98.30
68235;DHT22;55052;52.056;5.296;2024-02-21T13:41:00;11.80;98.30
68235;DHT22;55052;52.056;5.296;2024-02-21T13:43:27;11.80;98.30
68235;DHT22;55052;52.056;5.296;2024-02-21T13:45:59;11.90;98.40
68235;DHT22;55052;52.056;5.296;2024-02-21T13:48:27;11.90;98.40
68235;DHT22;55052;52.056;5.296;2024-02-21T13:50:55;11.90;98.40
68235;DHT22;55052;52.056;5.296;2024-02-21T13:53:22;11.80;98.30
68235;DHT22;55052;52.056;5.296;2024-02-21T13:55:49;11.90;98.40
68235;DHT22;55052;52.056;5.296;2024-02-21T13:58:16;11.80;98.30
68235;DHT22;55052;52.056;5.296;2024-02-21T14:00:44;11.80;98.40
68235;DHT22;55052;52.056;5.296;2024-02-21T14:03:11;11.80;98.20
68235;DHT22;55052;52.056;5.296;2024-02-21T14:05:37;11.90;98.30
68235;DHT22;55052;52.056;5.296;2024-02-21T14:08:09;11.80;98.20
68235;DHT22;55052;52.056;5.296;2024-02-21T14:10:36;11.80;98.20
68235;DHT22;55052;52.056;5.296;2024-02-21T14:13:04;11.80;98.20
68235;DHT22;55052;52.056;5.296;2024-02-21T14:15:31;11.80;98.20
68235;DHT22;55052;52.056;5.296;2024-02-21T14:17:59;11.80;98.30
68235;DHT22;55052;52.056;5.296;2024-02-21T14:20:26;11.80;98.30
68235;DHT22;55052;52.056;5.296;2024-02-21T14:22:53;11.80;98.30
68235;DHT22;55052;52.056;5.296;2024-02-21T14:25:20;11.80;98.30
68235;DHT22;55052;52.056;5.296;2024-02-21T14:27:46;11.80;98.30
68235;DHT22;55052;52.056;5.296;2024-02-21T14:30:13;11.80;98.20
68235;DHT22;55052;52.056;5.296;2024-02-21T14:32:43;11.80;98.30
68235;DHT22;55052;52.056;5.296;2024-02-21T14:35:11;11.90;98.50
68235;DHT22;55052;52.056;5.296;2024-02-21T14:37:38;11.90;98.40
68235;DHT22;55052;52.056;5.296;2024-02-21T14:40:05;11.90;98.30
68235;DHT22;55052;52.056;5.296;2024-02-21T14:42:32;11.80;98.20
68235;DHT22;55052;52.056;5.296;2024-02-21T14:45:00;11.80;98.20
68235;DHT22;55052;52.056;5.296;2024-02-21T14:47:32;11.80;98.20
68235;DHT22;55052;52.056;5.296;2024-02-21T14:50:01;11.80;98.10
68235;DHT22;55052;52.056;5.296;2024-02-21T14:52:28;11.80;98.20
68235;DHT22;55052;52.056;5.296;2024-02-21T14:54:56;11.80;98.20
68235;DHT22;55052;52.056;5.296;2024-02-21T14:57:23;11.80;98.20
68235;DHT22;55052;52.056;5.296;2024-02-21T14:59:49;11.70;98.20
68235;DHT22;55052;52.056;5.296;2024-02-21T15:02:20;11.70;98.20
68235;DHT22;55052;52.056;5.296;2024-02-21T15:04:46;11.60;98.20
68235;DHT22;55052;52.056;5.296;2024-02-21T15:07:14;11.60;98.30
68235;DHT22;55052;52.056;5.296;2024-02-21T15:09:40;11.60;98.40
68235;DHT22;55052;52.056;5.296;2024-02-21T15:12:07;11.50;98.40
68235;DHT22;55052;52.056;5.296;2024-02-21T15:14:34;11.50;98.50
68235;DHT22;55052;52.056;5.296;2024-02-21T15:17:02;11.40;98.60
68235;DHT22;55052;52.056;5.296;2024-02-21T15:19:29;11.30;98.70
68235;DHT22;55052;52.056;5.296;2024-02-21T15:21:56;11.40;98.90
68235;DHT22;55052;52.056;5.296;2024-02-21T15:24:23;11.30;99.00
68235;DHT22;55052;52.056;5.296;2024-02-21T15:26:50;11.30;99.10
68235;DHT22;55052;52.056;5.296;2024-02-21T15:29:17;11.30;99.20
68235;DHT22;55052;52.056;5.296;2024-02-21T15:31:44;11.20;99.30
68235;DHT22;55052;52.056;5.296;2024-02-21T15:34:13;11.10;99.40
68235;DHT22;55052;52.056;5.296;2024-02-21T15:36:45;11.10;99.50
68235;DHT22;55052;52.056;5.296;2024-02-21T15:39:12;11.10;99.90
68235;DHT22;55052;52.056;5.296;2024-02-21T15:41:39;11.00;99.70
68235;DHT22;55052;52.056;5.296;2024-02-21T15:44:05;11.00;99.80